Time;durP1;ratioP1;P1;durP2;ratioP2;P2;SDS_P1;SDS_P2;PMS_P1;PMS_P2;Temp;Humidity;BMP_temperature;BMP_pressure;BME280_temperature;BME280_humidity;BME280_pressure;Samples;Min_cycle;Max_cycle;Signal;HPM_P1;HPM_P2
2020/12/05 00:00:43;;;;;;;8.43;4.78;;;;;;;0.73;88.68;99181.94;5081985;28;20027;-77
2020/12/05 00:03:09;;;;;;;11.63;5.70;;;;;;;0.73;88.84;99182.81;5085234;28;20036;-77
2020/12/05 00:05:34;;;;;;;12.87;6.23;;;;;;;0.71;89.11;99194.53;5081665;28;20030;-76
2020/12/05 00:07:59;;;;;;;9.95;5.70;;;;;;;0.71;88.76;99196.19;5084123;28;20035;-77
2020/12/05 00:10:26;;;;;;;10.53;5.20;;;;;;;0.69;89.15;99198.66;5080595;28;20027;-76
2020/12/05 00:12:51;;;;;;;9.87;5.60;;;;;;;0.66;88.54;99197.69;5080034;28;20036;-77
2020/12/05 00:15:16;;;;;;;13.37;6.03;;;;;;;0.67;89.21;99207.00;5085254;28;20132;-76
2020/12/05 00:17:41;;;;;;;12.97;5.73;;;;;;;0.66;89.11;99205.28;5078703;28;20278;-76
2020/12/05 00:20:07;;;;;;;10.95;5.72;;;;;;;0.67;89.10;99209.53;5085812;28;20026;-77
2020/12/05 00:22:32;;;;;;;13.98;5.60;;;;;;;0.65;89.32;99214.53;5085475;28;20102;-77
2020/12/05 00:24:57;;;;;;;12.38;6.20;;;;;;;0.64;89.17;99212.78;5083199;28;20053;-78
2020/12/05 00:27:23;;;;;;;9.65;6.07;;;;;;;0.62;89.68;99212.72;5086347;28;20056;-76
2020/12/05 00:29:48;;;;;;;10.37;5.40;;;;;;;0.61;89.46;99221.09;5082566;28;20016;-76
2020/12/05 00:32:13;;;;;;;15.97;6.33;;;;;;;0.53;90.12;99222.50;5077655;28;20027;-76
2020/12/05 00:34:39;;;;;;;9.77;5.80;;;;;;;0.49;89.84;99223.19;5083412;28;20674;-77
2020/12/05 00:37:04;;;;;;;9.30;5.55;;;;;;;0.52;89.93;99228.34;5070836;28;20571;-75
2020/12/05 00:39:29;;;;;;;13.50;6.00;;;;;;;0.53;90.04;99232.59;5078034;28;20445;-76
2020/12/05 00:41:55;;;;;;;15.68;7.10;;;;;;;0.57;90.20;99242.00;5075043;28;20028;-77
2020/12/05 00:44:20;;;;;;;17.40;8.13;;;;;;;0.55;90.85;99242.75;5079130;28;20036;-76
2020/12/05 00:46:45;;;;;;;11.57;5.82;;;;;;;0.57;90.29;99253.78;5082239;28;20594;-76
2020/12/05 00:49:10;;;;;;;15.37;6.43;;;;;;;0.63;90.13;99254.88;5085158;28;20039;-76
2020/12/05 00:51:36;;;;;;;13.20;6.83;;;;;;;0.65;89.97;99261.63;5083157;28;20315;-77
2020/12/05 00:54:01;;;;;;;13.02;5.80;;;;;;;0.65;89.96;99272.63;5073236;28;20395;-76
2020/12/05 00:56:27;;;;;;;10.95;6.18;;;;;;;0.59;90.04;99269.84;5070377;28;20063;-76
2020/12/05 00:58:52;;;;;;;20.27;7.78;;;;;;;0.57;90.36;99277.38;5087407;28;20473;-76
2020/12/05 01:01:17;;;;;;;12.37;7.17;;;;;;;0.55;90.45;99280.66;5089560;28;20042;-77
2020/12/05 01:03:43;;;;;;;16.60;6.03;;;;;;;0.60;90.13;99276.63;5080679;28;20016;-77
2020/12/05 01:06:13;;;;;;;16.00;6.50;;;;;;;0.60;90.39;99272.44;5082417;28;20020;-76
2020/12/05 01:08:40;;;;;;;15.40;7.17;;;;;;;0.59;90.73;99285.88;5074402;28;20037;-76
2020/12/05 01:11:16;;;;;;;15.63;5.70;;;;;;;0.61;90.60;99279.22;5077932;28;20035;-75
2020/12/05 01:13:41;;;;;;;12.37;6.13;;;;;;;0.64;90.63;99286.03;5072826;28;20397;-76
2020/12/05 01:16:10;;;;;;;14.18;7.00;;;;;;;0.63;90.63;99295.28;5078448;28;20028;-76
2020/12/05 01:18:35;;;;;;;16.17;6.10;;;;;;;0.60;90.39;99297.69;5078634;28;20111;-75
2020/12/05 01:21:00;;;;;;;12.47;6.37;;;;;;;0.56;90.78;99308.50;5078474;28;20524;-76
2020/12/05 01:23:26;;;;;;;13.53;6.73;;;;;;;0.53;90.30;99300.81;5074119;28;20285;-76
2020/12/05 01:25:51;;;;;;;18.35;6.28;;;;;;;0.54;90.77;99306.72;5079922;28;20032;-76
2020/12/05 01:28:16;;;;;;;13.90;7.23;;;;;;;0.51;90.56;99317.56;5084357;28;20031;-77
2020/12/05 01:30:41;;;;;;;11.83;6.37;;;;;;;0.49;90.74;99320.84;5079562;28;20283;-75
2020/12/05 01:33:07;;;;;;;18.95;7.70;;;;;;;0.46;91.03;99329.16;5072200;28;20039;-76
2020/12/05 01:35:32;;;;;;;16.33;7.50;;;;;;;0.44;91.29;99325.72;5078277;28;20028;-76
2020/12/05 01:37:57;;;;;;;16.63;6.90;;;;;;;0.42;91.00;99324.78;5074036;28;20282;-77
2020/12/05 01:40:22;;;;;;;15.27;6.82;;;;;;;0.42;90.67;99327.31;5070474;28;20060;-78
2020/12/05 01:42:51;;;;;;;13.03;6.30;;;;;;;0.43;90.91;99329.03;5082675;28;20024;-77
2020/12/05 01:45:16;;;;;;;14.03;6.73;;;;;;;0.39;91.09;99333.94;5074051;28;20286;-78
2020/12/05 01:47:42;;;;;;;16.60;6.05;;;;;;;0.35;90.74;99332.94;5088376;28;20020;-76
2020/12/05 01:50:07;;;;;;;13.00;6.78;;;;;;;0.31;90.75;99333.59;5089146;28;20035;-76
2020/12/05 01:52:36;;;;;;;13.80;5.88;;;;;;;0.26;91.09;99335.06;5077749;28;20071;-76
2020/12/05 01:57:34;;;;;;;16.10;8.17;;;;;;;0.25;91.09;99338.41;5117317;22;20048;-75
2020/12/05 01:59:59;;;;;;;15.30;7.82;;;;;;;0.25;91.27;99345.97;5094268;28;20035;-75
2020/12/05 02:02:25;;;;;;;16.90;7.83;;;;;;;0.24;91.43;99344.25;5107383;28;20027;-76
2020/12/05 02:05:28;;;;;;;14.73;7.90;;;;;;;0.23;91.47;99340.00;5099468;28;20309;-73
2020/12/05 02:08:03;;;;;;;13.03;7.07;;;;;;;0.22;91.50;99339.16;5079473;28;20506;-76
2020/12/05 02:10:36;;;;;;;15.63;6.93;;;;;;;0.22;91.41;99339.16;5084529;28;20077;-74
2020/12/05 02:13:13;;;;;;;17.67;7.80;;;;;;;0.19;91.69;99336.50;5077122;28;20055;-76
2020/12/05 02:15:40;;;;;;;12.17;7.13;;;;;;;0.19;91.32;99338.16;5075975;28;20062;-75
2020/12/05 02:18:08;;;;;;;11.47;8.23;;;;;;;0.21;91.41;99342.47;5079152;28;20217;-73
2020/12/05 02:20:35;;;;;;;14.87;7.47;;;;;;;0.23;91.50;99345.91;5087109;28;20138;-76
2020/12/05 02:23:21;;;;;;;11.00;6.10;;;;;;;0.24;90.73;99354.34;5074142;28;20161;-75
2020/12/05 02:25:50;;;;;;;14.00;6.23;;;;;;;0.04;90.60;99357.75;5086863;28;20441;-75
2020/12/05 02:28:19;;;;;;;12.30;7.17;;;;;;;-0.16;91.79;99357.78;5084217;28;20036;-76
2020/12/05 02:30:46;;;;;;;17.43;8.40;;;;;;;-0.15;91.97;99356.97;5073115;28;20035;-76
2020/12/05 02:33:11;;;;;;;15.30;8.63;;;;;;;-0.13;92.75;99355.38;5069590;28;20444;-76
2020/12/05 02:35:37;;;;;;;14.18;8.32;;;;;;;-0.09;92.17;99349.66;5083145;28;20020;-74
2020/12/05 02:38:07;;;;;;;13.43;7.13;;;;;;;-0.09;91.85;99352.19;5080003;28;20028;-75
2020/12/05 02:40:32;;;;;;;14.23;8.33;;;;;;;-0.16;92.49;99346.81;5087203;28;20478;-75
2020/12/05 02:42:58;;;;;;;15.73;9.50;;;;;;;-0.09;92.31;99347.13;5088321;28;20035;-74
2020/12/05 02:45:24;;;;;;;17.45;9.48;;;;;;;-0.09;92.41;99347.13;5088566;28;20028;-75
2020/12/05 02:47:49;;;;;;;16.30;8.95;;;;;;;-0.06;91.87;99342.19;5088710;28;20020;-76
2020/12/05 02:50:14;;;;;;;15.27;8.95;;;;;;;-0.07;92.76;99332.03;5084506;28;20027;-76
2020/12/05 02:52:40;;;;;;;20.42;9.18;;;;;;;-0.09;92.18;99329.47;5088472;28;20020;-75
2020/12/05 02:55:05;;;;;;;18.20;10.13;;;;;;;-0.10;92.26;99325.22;5088606;28;20073;-73
2020/12/05 02:57:30;;;;;;;16.03;9.93;;;;;;;-0.09;92.40;99329.47;5081073;28;20396;-72
2020/12/05 02:59:56;;;;;;;16.92;10.20;;;;;;;-0.06;92.53;99332.09;5076383;28;20031;-75
2020/12/05 03:02:21;;;;;;;17.63;10.52;;;;;;;-0.01;92.55;99334.81;5075892;28;20390;-76
2020/12/05 03:04:46;;;;;;;16.17;10.53;;;;;;;0.05;92.38;99336.75;5080856;28;20031;-75
2020/12/05 03:07:11;;;;;;;19.40;11.00;;;;;;;0.07;92.34;99335.16;5089726;28;20281;-76
2020/12/05 03:09:37;;;;;;;17.43;11.00;;;;;;;0.06;92.37;99343.53;5092239;28;20024;-75
2020/12/05 03:12:03;;;;;;;14.07;9.37;;;;;;;0.07;92.15;99346.13;5079868;28;20310;-76
2020/12/05 03:14:28;;;;;;;;;;;;;;;0.04;91.64;99342.59;5088301;28;20485;-75
2020/12/05 03:16:53;;;;;;;14.93;8.67;;;;;;;-0.03;91.52;99351.56;5071220;28;19919;-76
2020/12/05 03:19:19;;;;;;;15.83;8.50;;;;;;;-0.05;91.22;99351.50;5080447;28;20382;-76
2020/12/05 03:21:44;;;;;;;12.80;7.53;;;;;;;-0.10;91.00;99360.53;5092371;28;20032;-76
2020/12/05 03:24:09;;;;;;;15.65;7.97;;;;;;;-0.12;90.72;99352.06;5092027;28;20616;-74
2020/12/05 03:26:35;;;;;;;20.73;7.63;;;;;;;-0.20;90.97;99355.06;5092183;28;20036;-75
2020/12/05 03:29:01;;;;;;;12.02;7.13;;;;;;;-0.22;90.98;99360.03;5091155;28;20378;-76
2020/12/05 03:34:05;;;;;;;13.13;7.43;;;;;;;-0.33;92.23;99372.22;5086499;28;19912;-74
2020/12/05 03:36:30;;;;;;;18.87;10.27;;;;;;;-0.35;92.26;99372.91;5078254;28;20028;-72
2020/12/05 03:38:56;;;;;;;14.55;9.60;;;;;;;-0.32;92.17;99368.88;5090824;28;20069;-76
2020/12/05 03:41:23;;;;;;;15.77;9.60;;;;;;;-0.34;91.65;99365.41;5090767;28;20453;-76
2020/12/05 03:43:49;;;;;;;15.90;10.17;;;;;;;-0.47;92.60;99377.44;5087153;28;20043;-73
2020/12/05 03:46:14;;;;;;;20.27;11.47;;;;;;;-0.49;93.15;99367.28;5080285;28;20025;-74
2020/12/05 03:48:40;;;;;;;22.38;12.20;;;;;;;-0.52;93.21;99376.38;5086038;28;20085;-76
2020/12/05 03:51:05;;;;;;;24.63;13.25;;;;;;;-0.51;93.26;99378.97;5083078;28;20107;-73
2020/12/05 03:53:31;;;;;;;18.05;12.35;;;;;;;-0.46;93.17;99372.47;5070306;28;20024;-73
2020/12/05 03:55:56;;;;;;;21.08;11.07;;;;;;;-0.48;92.54;99374.06;5090048;28;20052;-76
2020/12/05 03:58:22;;;;;;;13.75;8.55;;;;;;;-0.46;92.50;99366.56;5090397;28;20455;-74
2020/12/05 04:00:47;;;;;;;15.75;11.35;;;;;;;-0.59;92.62;99369.34;5090512;28;20028;-75
2020/12/05 04:03:13;;;;;;;22.33;13.18;;;;;;;-0.53;93.38;99367.94;5092362;28;20054;-76
2020/12/05 04:05:38;;;;;;;25.13;16.08;;;;;;;-0.46;93.75;99364.88;5084687;28;20027;-76
2020/12/05 04:08:03;;;;;;;30.03;17.17;;;;;;;-0.36;93.77;99371.19;5078569;28;20032;-77
2020/12/05 04:10:29;;;;;;;24.02;15.30;;;;;;;-0.31;94.51;99372.28;5091391;28;20270;-74
2020/12/05 04:12:54;;;;;;;22.00;14.90;;;;;;;-0.30;93.63;99361.38;5089262;28;20394;-75
2020/12/05 04:15:20;;;;;;;25.20;14.60;;;;;;;-0.33;93.58;99362.13;5076410;28;20095;-77
2020/12/05 04:17:45;;;;;;;23.67;15.40;;;;;;;-0.29;93.18;99364.78;5076572;28;20024;-76
2020/12/05 04:20:10;;;;;;;28.57;16.43;;;;;;;-0.29;93.41;99368.16;5087315;28;20443;-76
2020/12/05 04:22:35;;;;;;;28.20;17.57;;;;;;;-0.24;93.37;99370.88;5082549;28;20282;-75
2020/12/05 04:25:01;;;;;;;33.78;18.48;;;;;;;-0.26;93.47;99367.41;5078026;28;20758;-75
2020/12/05 04:27:26;;;;;;;37.65;18.70;;;;;;;-0.24;93.77;99366.69;5085754;28;20027;-74
2020/12/05 04:29:51;;;;;;;27.53;18.57;;;;;;;-0.24;93.33;99373.41;5079161;28;20033;-76
2020/12/05 04:32:17;;;;;;;28.65;19.20;;;;;;;-0.29;93.19;99368.16;5085460;28;20266;-76
2020/12/05 04:34:42;;;;;;;32.47;18.98;;;;;;;-0.32;93.30;99375.59;5090947;28;20081;-76
2020/12/05 04:37:08;;;;;;;32.45;18.92;;;;;;;-0.29;93.33;99383.28;5077883;28;20029;-73
2020/12/05 04:39:33;;;;;;;32.15;19.83;;;;;;;-0.29;93.59;99380.78;5080054;28;20478;-72
2020/12/05 04:41:58;;;;;;;29.60;18.07;;;;;;;-0.29;93.33;99375.72;5080319;28;20028;-76
2020/12/05 04:44:24;;;;;;;29.23;16.95;;;;;;;-0.18;93.23;99381.22;5085528;28;20482;-76
2020/12/05 04:46:49;;;;;;;25.92;14.65;;;;;;;-0.23;92.83;99378.50;5092327;28;20024;-76
2020/12/05 04:49:16;;;;;;;24.90;14.15;;;;;;;-0.17;92.50;99370.31;5085404;28;20032;-76
2020/12/05 04:51:48;;;;;;;26.20;15.33;;;;;;;-0.30;92.94;99373.13;5077751;28;20103;-76
2020/12/05 04:54:25;;;;;;;22.37;15.10;;;;;;;-0.38;93.06;99370.25;5090223;28;20032;-74
2020/12/05 04:56:54;;;;;;;29.83;17.15;;;;;;;-0.40;93.49;99376.91;5070339;28;20040;-76
2020/12/05 04:59:19;;;;;;;24.73;16.57;;;;;;;-0.41;93.64;99377.69;5088578;28;20099;-76
2020/12/05 05:01:49;;;;;;;29.67;19.15;;;;;;;-0.33;93.71;99391.50;5090640;28;20038;-76
2020/12/05 05:04:15;;;;;;;35.00;20.50;;;;;;;-0.27;93.98;99386.75;5090873;28;20024;-76
2020/12/05 05:06:40;;;;;;;35.30;17.17;;;;;;;-0.34;93.71;99385.59;5079128;28;20028;-76
2020/12/05 05:09:05;;;;;;;30.55;18.85;;;;;;;-0.25;94.11;99386.81;5088561;28;20047;-75
2020/12/05 05:11:31;;;;;;;32.83;17.48;;;;;;;-0.17;93.86;99393.03;5105785;28;20074;-72
2020/12/05 05:14:02;;;;;;;24.30;17.40;;;;;;;-0.12;93.81;99394.09;5096673;28;20024;-76
2020/12/05 05:16:29;;;;;;;29.87;15.73;;;;;;;-0.13;93.61;99397.41;5081405;28;20016;-73
2020/12/05 05:18:55;;;;;;;25.07;17.77;;;;;;;-0.19;93.44;99398.03;5070088;28;20022;-74
2020/12/05 05:21:39;;;;;;;24.23;15.93;;;;;;;-0.21;92.96;99397.09;5088172;28;20024;-76
2020/12/05 05:24:12;;;;;;;30.10;17.40;;;;;;;-0.32;93.38;99388.22;5087838;28;20020;-74
2020/12/05 05:26:38;;;;;;;33.10;14.93;;;;;;;-0.40;92.59;99392.03;5084853;28;20021;-76
2020/12/05 05:29:04;;;;;;;22.02;15.18;;;;;;;-0.52;92.52;99399.94;5081441;28;20024;-75
2020/12/05 05:31:48;;;;;;;31.60;19.10;;;;;;;-0.51;93.40;99401.66;5082469;28;20040;-73
2020/12/05 05:34:21;;;;;;;33.53;21.90;;;;;;;-0.33;94.10;99404.13;5078861;28;20024;-75
2020/12/05 05:36:47;;;;;;;33.60;20.83;;;;;;;-0.32;94.18;99398.31;5088215;28;20032;-74
2020/12/05 05:39:14;;;;;;;30.83;18.48;;;;;;;-0.34;93.55;99415.00;5078689;28;20039;-74
2020/12/05 05:41:44;;;;;;;27.27;17.20;;;;;;;-0.34;93.79;99417.53;5085638;28;20031;-75
2020/12/05 05:44:14;;;;;;;24.17;16.00;;;;;;;-0.35;93.41;99425.88;5085393;28;20021;-74
2020/12/05 05:46:42;;;;;;;21.90;14.10;;;;;;;-0.35;93.19;99428.41;5090573;28;20044;-76
2020/12/05 05:49:09;;;;;;;18.73;12.63;;;;;;;-0.46;92.63;99430.47;5069470;28;20021;-73
2020/12/05 05:51:56;;;;;;;28.87;18.37;;;;;;;-0.52;92.44;99436.91;5069235;28;20024;-77
2020/12/05 05:54:26;;;;;;;20.43;12.37;;;;;;;-0.46;91.96;99439.69;5087862;28;20063;-76
2020/12/05 05:57:02;;;;;;;18.70;11.73;;;;;;;-0.54;91.25;99441.03;5079174;28;20020;-76
2020/12/05 05:59:29;;;;;;;18.52;10.63;;;;;;;-0.65;92.02;99433.84;5088712;28;20032;-77
2020/12/05 06:01:55;;;;;;;18.73;12.37;;;;;;;-0.73;91.68;99435.13;5088284;28;20047;-76
2020/12/05 06:04:31;;;;;;;23.17;14.60;;;;;;;-0.68;92.72;99453.00;5088484;28;20173;-74
2020/12/05 06:06:59;;;;;;;21.30;13.48;;;;;;;-0.37;92.99;99460.28;5087957;28;20027;-76
2020/12/05 06:09:40;;;;;;;19.27;11.53;;;;;;;-0.40;92.89;99460.16;5087961;28;20023;-76
2020/12/05 06:12:06;;;;;;;20.13;11.73;;;;;;;-0.41;92.92;99461.81;5068752;28;20024;-75
2020/12/05 06:14:32;;;;;;;21.52;11.13;;;;;;;-0.29;92.57;99464.03;5084140;28;20107;-73
2020/12/05 06:16:58;;;;;;;17.30;11.57;;;;;;;-0.50;93.10;99461.41;5101283;28;20111;-75
2020/12/05 06:19:25;;;;;;;16.63;11.30;;;;;;;-0.55;92.96;99465.38;5086534;28;20039;-76
2020/12/05 06:21:53;;;;;;;20.80;14.23;;;;;;;-0.56;93.84;99467.84;5088885;28;20031;-76
2020/12/05 06:24:28;;;;;;;23.20;12.97;;;;;;;-0.61;93.64;99476.84;5084143;28;20031;-74
2020/12/05 06:27:00;;;;;;;20.57;14.03;;;;;;;-0.53;94.20;99475.53;5086418;28;20043;-76
2020/12/05 06:29:26;;;;;;;23.87;14.43;;;;;;;-0.47;94.42;99471.63;5087825;28;20040;-76
2020/12/05 06:31:51;;;;;;;19.45;10.85;;;;;;;-0.48;93.94;99471.56;5078882;28;20028;-75
2020/12/05 06:34:39;;;;;;;14.48;10.02;;;;;;;-0.55;93.52;99484.69;5069252;28;20101;-76
2020/12/05 06:37:05;;;;;;;11.10;7.40;;;;;;;-0.66;93.09;99487.56;5087185;28;20020;-76
2020/12/05 06:39:31;;;;;;;12.82;8.00;;;;;;;-0.82;91.93;99485.16;5088736;28;20031;-72
2020/12/05 06:41:56;;;;;;;14.30;9.98;;;;;;;-0.92;92.00;99488.03;5088675;28;20028;-74
2020/12/05 06:44:36;;;;;;;19.95;11.90;;;;;;;-0.78;93.66;99496.22;5088642;28;20052;-76
2020/12/05 06:47:21;;;;;;;22.87;15.37;;;;;;;-0.65;93.81;99504.47;5067406;28;20035;-76
2020/12/05 06:49:47;;;;;;;26.03;17.60;;;;;;;-0.53;94.37;99503.28;5067329;28;20032;-74
2020/12/05 06:52:24;;;;;;;35.20;21.67;;;;;;;-0.29;94.85;99504.41;5087728;28;20097;-75
2020/12/05 06:54:55;;;;;;;19.77;13.63;;;;;;;-0.36;94.96;99509.94;5088564;28;20065;-76
2020/12/05 06:57:26;;;;;;;22.80;14.37;;;;;;;-0.23;94.45;99509.72;5068526;28;20115;-76
2020/12/05 07:00:09;;;;;;;14.77;9.33;;;;;;;-0.38;93.71;99509.88;5068371;28;20061;-76
2020/12/05 07:02:35;;;;;;;11.10;7.43;;;;;;;-0.46;93.05;99513.72;5084515;28;20028;-75
2020/12/05 07:05:19;;;;;;;13.02;7.68;;;;;;;-0.56;92.91;99525.84;5068477;28;20025;-72
2020/12/05 07:07:45;;;;;;;11.63;7.67;;;;;;;-0.52;92.26;99526.06;5068525;28;20056;-76
2020/12/05 07:10:11;;;;;;;13.43;7.43;;;;;;;-0.57;92.10;99524.97;5081988;28;20516;-76
2020/12/05 07:12:37;;;;;;;13.70;9.20;;;;;;;-0.54;92.25;99537.72;5088328;28;20111;-76
2020/12/05 07:15:27;;;;;;;24.60;13.52;;;;;;;-0.05;94.39;99540.81;5083888;28;20477;-76
2020/12/05 07:17:57;;;;;;;21.93;11.33;;;;;;;0.05;93.25;99546.28;5087638;28;20039;-76
2020/12/05 07:20:24;;;;;;;20.53;12.93;;;;;;;0.02;93.60;99552.06;5087001;28;20040;-76
2020/12/05 07:22:53;;;;;;;24.50;13.13;;;;;;;0.05;93.23;99549.69;5088191;28;20028;-76
2020/12/05 07:25:20;;;;;;;18.17;11.43;;;;;;;0.02;93.03;99557.13;5086997;28;20084;-76
2020/12/05 07:27:46;;;;;;;21.37;13.10;;;;;;;0.12;93.71;99560.91;5082598;28;20432;-75
2020/12/05 07:30:12;;;;;;;16.80;11.23;;;;;;;0.11;92.97;99561.69;5079096;28;20032;-76
2020/12/05 07:32:39;;;;;;;16.67;10.73;;;;;;;0.15;93.32;99571.13;5089062;28;20047;-76
2020/12/05 07:35:06;;;;;;;19.20;11.27;;;;;;;0.30;93.58;99572.66;5071006;28;20020;-74
2020/12/05 07:37:34;;;;;;;22.13;13.47;;;;;;;0.49;94.25;99581.03;5068151;28;20102;-74
2020/12/05 07:40:00;;;;;;;18.90;11.00;;;;;;;0.66;93.64;99574.22;5086589;28;20016;-73
2020/12/05 07:42:31;;;;;;;;;;;;;;;0.74;93.24;99593.06;5087183;28;20024;-73
2020/12/05 07:45:07;;;;;;;16.37;10.67;;;;;;;0.81;93.05;99600.97;5086746;28;20352;-75
2020/12/05 07:47:32;;;;;;;18.57;10.17;;;;;;;0.76;92.73;99616.75;5070226;28;20085;-75
2020/12/05 07:49:59;;;;;;;16.55;10.60;;;;;;;0.81;92.82;99613.63;5071793;28;20021;-76
2020/12/05 07:52:25;;;;;;;19.50;9.90;;;;;;;0.83;92.62;99626.31;5071651;28;20093;-76
2020/12/05 07:54:58;;;;;;;15.63;9.30;;;;;;;0.76;92.25;99621.81;5071474;28;20474;-76
2020/12/05 07:57:28;;;;;;;21.77;9.90;;;;;;;0.86;92.20;99634.03;5084386;28;20481;-77
2020/12/05 08:00:08;;;;;;;14.23;8.60;;;;;;;0.96;92.24;99628.56;5090468;28;20077;-76
2020/12/05 08:02:34;;;;;;;16.93;10.40;;;;;;;0.99;92.29;99631.25;5090988;28;20032;-76
2020/12/05 08:05:05;;;;;;;16.37;9.70;;;;;;;0.98;92.22;99629.50;5091444;28;20619;-74
2020/12/05 08:07:35;;;;;;;15.17;9.27;;;;;;;1.22;91.66;99635.56;5076952;28;20036;-73
2020/12/05 08:10:12;;;;;;;18.73;9.20;;;;;;;1.22;91.21;99635.56;5088507;28;20106;-77
2020/12/05 08:12:44;;;;;;;15.30;9.07;;;;;;;1.16;91.41;99640.38;5098033;28;20027;-76
2020/12/05 08:15:19;;;;;;;16.03;9.13;;;;;;;1.31;91.07;99640.16;5075295;28;20073;-77
2020/12/05 08:17:45;;;;;;;14.33;9.50;;;;;;;1.24;90.88;99645.75;5081320;28;20393;-78
2020/12/05 08:20:11;;;;;;;16.20;9.73;;;;;;;1.09;91.41;99652.72;5084590;28;20080;-77
2020/12/05 08:22:37;;;;;;;;;;;;;;;1.07;91.76;99655.19;5084655;28;20057;-77
2020/12/05 08:25:03;;;;;;;18.33;11.53;;;;;;;1.01;92.47;99666.69;5082977;28;20552;-77
2020/12/05 08:27:29;;;;;;;21.58;12.65;;;;;;;1.00;92.70;99667.50;5079863;28;20028;-76
2020/12/05 08:29:56;;;;;;;21.98;11.65;;;;;;;1.12;92.54;99671.41;5078631;28;20067;-77
2020/12/05 08:32:23;;;;;;;22.50;11.07;;;;;;;1.31;92.31;99668.00;5084759;28;20510;-77
2020/12/05 08:34:49;;;;;;;17.63;11.30;;;;;;;1.50;92.35;99667.91;5089513;28;20085;-74
2020/12/05 08:37:24;;;;;;;16.42;10.48;;;;;;;1.50;92.13;99667.91;5069944;28;20477;-76
2020/12/05 08:39:51;;;;;;;20.67;12.13;;;;;;;1.59;91.96;99674.16;5079954;28;20104;-78
2020/12/05 08:42:16;;;;;;;20.27;12.03;;;;;;;1.93;91.57;99681.41;5087326;28;20166;-78
2020/12/05 08:44:42;;;;;;;18.95;11.80;;;;;;;2.10;90.74;99682.94;5078270;28;20568;-77
2020/12/05 08:47:07;;;;;;;15.75;10.30;;;;;;;2.14;90.33;99687.31;5084756;28;20028;-77
2020/12/05 08:49:37;;;;;;;15.03;10.50;;;;;;;2.11;90.18;99692.28;5080166;28;20028;-75
2020/12/05 08:52:03;;;;;;;16.43;10.90;;;;;;;2.15;89.12;99683.97;5082833;28;20031;-77
2020/12/05 08:54:29;;;;;;;17.40;10.50;;;;;;;2.26;89.03;99685.25;5076509;28;20028;-78
2020/12/05 08:57:05;;;;;;;19.05;10.88;;;;;;;2.08;89.51;99680.38;5077999;28;20514;-76
2020/12/05 08:59:31;;;;;;;25.33;13.10;;;;;;;2.36;89.96;99683.94;5072752;28;20028;-75
2020/12/05 09:01:56;;;;;;;17.10;12.45;;;;;;;2.46;89.12;99686.88;5098953;28;20028;-76
2020/12/05 09:04:33;;;;;;;15.20;10.45;;;;;;;2.45;89.22;99685.16;5077762;28;20028;-77
2020/12/05 09:07:17;;;;;;;;;;;;;;;2.58;87.79;99688.13;5082382;28;20034;-76
2020/12/05 09:09:46;;;;;;;16.27;9.97;;;;;;;2.54;88.69;99692.22;5085878;28;20015;-76
2020/12/05 09:12:17;;;;;;;17.67;11.13;;;;;;;2.51;88.77;99692.09;5084878;28;20032;-74
2020/12/05 09:14:47;;;;;;;14.97;10.20;;;;;;;2.47;88.59;99697.88;5084969;28;20107;-75
2020/12/05 09:17:24;;;;;;;15.70;9.40;;;;;;;2.48;88.57;99697.94;5079349;28;20540;-77
2020/12/05 09:20:07;;;;;;;16.63;10.63;;;;;;;2.56;88.30;99694.81;5080911;28;20088;-76
2020/12/05 09:22:33;;;;;;;15.90;10.23;;;;;;;2.59;88.52;99710.13;5077877;28;20130;-77
2020/12/05 09:25:00;;;;;;;19.02;10.43;;;;;;;2.73;88.51;99711.53;5073363;28;20020;-78
2020/12/05 09:27:39;;;;;;;13.38;7.88;;;;;;;2.90;87.78;99712.13;5083612;28;20028;-77
2020/12/05 09:30:12;;;;;;;14.70;10.30;;;;;;;2.85;87.49;99717.03;5077584;28;20024;-79
2020/12/05 09:32:40;;;;;;;14.77;9.67;;;;;;;2.88;87.50;99722.19;5076605;28;20073;-77
2020/12/05 09:35:07;;;;;;;17.00;9.00;;;;;;;2.93;87.41;99723.25;5085394;28;20031;-76
2020/12/05 09:37:32;;;;;;;13.60;8.50;;;;;;;3.03;86.93;99725.31;5086126;28;20401;-77
2020/12/05 09:39:57;;;;;;;11.03;7.57;;;;;;;3.12;86.73;99724.75;5084321;28;20024;-74
2020/12/05 09:42:24;;;;;;;10.38;7.57;;;;;;;3.10;86.37;99731.47;5075841;28;20092;-74
2020/12/05 09:44:50;;;;;;;12.53;7.40;;;;;;;3.17;86.33;99738.47;5087157;28;20027;-74
2020/12/05 09:47:15;;;;;;;15.25;8.05;;;;;;;3.31;86.00;99734.75;5074524;28;20394;-75
2020/12/05 09:49:40;;;;;;;16.03;10.73;;;;;;;3.58;85.39;99727.22;5078059;28;20020;-76
2020/12/05 09:52:06;;;;;;;11.95;7.40;;;;;;;3.90;84.28;99730.81;5080354;28;20277;-75
2020/12/05 09:54:31;;;;;;;9.90;6.33;;;;;;;4.46;82.02;99730.84;5085389;28;20494;-77
2020/12/05 09:56:56;;;;;;;10.10;6.03;;;;;;;5.51;78.29;99733.78;5075331;28;20024;-76
2020/12/05 09:59:21;;;;;;;11.03;5.73;;;;;;;6.65;74.27;99739.13;5068854;28;20282;-75
2020/12/05 10:01:47;;;;;;;7.63;4.40;;;;;;;7.84;68.69;99733.75;5084621;28;20023;-74
2020/12/05 10:04:15;;;;;;;8.03;4.13;;;;;;;8.59;66.07;99740.91;5088601;28;20312;-76
2020/12/05 10:06:41;;;;;;;8.97;3.80;;;;;;;9.16;65.55;99733.97;5075387;28;20031;-74
2020/12/05 10:09:06;;;;;;;6.07;2.90;;;;;;;10.23;60.38;99725.56;5083640;28;20032;-75
2020/12/05 10:11:31;;;;;;;5.45;2.75;;;;;;;10.61;57.37;99720.69;5070890;28;20363;-74
2020/12/05 10:13:57;;;;;;;4.07;2.58;;;;;;;10.29;58.89;99721.34;5076936;28;20496;-75
2020/12/05 10:16:22;;;;;;;5.80;2.77;;;;;;;10.37;57.55;99726.53;5071068;28;20051;-74
2020/12/05 10:18:47;;;;;;;6.07;3.20;;;;;;;9.90;59.12;99739.81;5078167;28;20278;-73
2020/12/05 10:21:12;;;;;;;8.13;3.00;;;;;;;8.56;61.69;99745.13;5069267;28;20363;-72
2020/12/05 10:23:38;;;;;;;8.83;3.83;;;;;;;7.75;66.77;99742.13;5082879;28;20328;-75
2020/12/05 10:26:03;;;;;;;5.28;3.20;;;;;;;7.39;67.02;99724.44;5082648;28;20389;-74
2020/12/05 10:28:28;;;;;;;8.40;4.30;;;;;;;7.78;69.57;99729.38;5083963;28;20488;-74
2020/12/05 10:30:53;;;;;;;7.17;4.47;;;;;;;8.53;64.83;99733.16;5080149;28;20266;-77
2020/12/05 10:33:19;;;;;;;9.40;4.07;;;;;;;8.61;62.91;99717.88;5076317;28;20055;-74
2020/12/05 10:35:44;;;;;;;6.45;3.38;;;;;;;9.04;60.57;99716.72;5077136;28;20265;-75
2020/12/05 10:38:09;;;;;;;6.47;3.30;;;;;;;9.04;61.15;99715.00;5077490;28;20062;-74
2020/12/05 10:40:34;;;;;;;5.27;3.37;;;;;;;8.61;61.72;99733.25;5088052;28;20616;-75
2020/12/05 10:43:04;;;;;;;6.03;3.47;;;;;;;8.80;61.57;99732.66;5079014;28;20270;-74
2020/12/05 10:45:29;;;;;;;5.65;3.60;;;;;;;9.45;62.07;99727.44;5076453;28;20636;-73
2020/12/05 10:47:55;;;;;;;6.43;4.22;;;;;;;10.36;58.42;99726.50;5086645;28;20538;-75
2020/12/05 10:50:20;;;;;;;8.20;4.57;;;;;;;11.15;55.65;99711.50;5079549;28;20028;-74
2020/12/05 10:52:45;;;;;;;7.05;3.25;;;;;;;8.94;59.46;99713.19;5081887;28;20482;-75
2020/12/05 10:55:10;;;;;;;8.10;3.53;;;;;;;10.56;61.17;99725.78;5086426;28;20028;-74
2020/12/05 10:57:36;;;;;;;6.80;3.58;;;;;;;11.40;56.18;99728.72;5078592;28;20032;-75
2020/12/05 11:00:01;;;;;;;5.88;3.58;;;;;;;11.52;55.34;99727.88;5076077;28;20020;-76
2020/12/05 11:02:26;;;;;;;7.53;3.30;;;;;;;11.17;56.31;99741.50;5088023;28;20115;-75
2020/12/05 11:04:51;;;;;;;9.45;4.55;;;;;;;11.40;53.68;99733.88;5082121;28;20020;-74
2020/12/05 11:07:17;;;;;;;5.53;3.65;;;;;;;12.12;53.09;99739.97;5088937;28;20103;-75
2020/12/05 11:09:42;;;;;;;7.00;4.32;;;;;;;12.51;54.75;99747.66;5088825;28;20515;-73
2020/12/05 11:12:07;;;;;;;5.90;4.35;;;;;;;12.76;52.13;99737.28;5087299;28;20020;-73
2020/12/05 11:14:32;;;;;;;9.18;3.72;;;;;;;12.29;52.14;99742.53;5083024;28;20019;-77
2020/12/05 11:16:58;;;;;;;4.97;3.00;;;;;;;12.08;50.35;99732.25;5073016;28;20008;-75
2020/12/05 11:19:23;;;;;;;;;;;;;;;11.84;52.35;99741.69;5079617;28;20538;-75
2020/12/05 11:21:48;;;;;;;4.25;2.95;;;;;;;11.98;51.29;99744.25;5080395;28;19912;-75
2020/12/05 11:24:13;;;;;;;4.70;3.03;;;;;;;11.84;52.01;99745.97;5077996;28;20035;-76
2020/12/05 11:26:39;;;;;;;;;;;;;;;11.39;51.76;99747.56;5092156;28;20109;-76
2020/12/05 11:29:07;;;;;;;7.78;3.13;;;;;;;11.12;52.69;99758.63;5081509;28;19939;-73
2020/12/05 11:31:33;;;;;;;7.38;3.58;;;;;;;9.91;55.65;99756.06;5088158;28;20037;-75
2020/12/05 11:33:58;;;;;;;;;;;;;;;8.41;59.93;99766.22;5073569;28;20036;-75
2020/12/05 11:36:23;;;;;;;7.32;3.30;;;;;;;7.76;63.00;99760.88;5073356;28;20045;-74